createdAt,value
2023-05-17T00:00:16.416Z,3.37
2023-05-17T00:02:43.156Z,3.53
2023-05-17T00:05:09.890Z,3.31
2023-05-17T00:07:36.578Z,3.16
2023-05-17T00:10:03.607Z,3.13
2023-05-17T00:12:30.378Z,3.34
2023-05-17T00:14:57.084Z,2.92
2023-05-17T00:17:23.829Z,3.07
2023-05-17T00:19:50.513Z,3.06
2023-05-17T00:22:17.178Z,2.85
2023-05-17T00:24:43.815Z,2.85
2023-05-17T00:27:10.488Z,3.01
2023-05-17T00:29:37.137Z,2.71
2023-05-17T00:32:04.002Z,2.71
2023-05-17T00:34:30.702Z,2.52
2023-05-17T00:36:57.341Z,2.70
2023-05-17T00:39:24.041Z,2.64
2023-05-17T00:41:50.736Z,2.89
2023-05-17T00:44:17.428Z,2.79
2023-05-17T00:46:44.143Z,2.53
2023-05-17T00:49:10.862Z,2.55
2023-05-17T00:51:37.609Z,2.39
2023-05-17T00:54:04.300Z,2.39
2023-05-17T00:56:30.971Z,2.17
2023-05-17T00:58:57.546Z,2.39
2023-05-17T01:01:24.188Z,2.23
2023-05-17T01:03:51.010Z,2.30
2023-05-17T01:06:17.657Z,2.60
2023-05-17T01:08:44.225Z,2.40
2023-05-17T01:11:27.493Z,2.46
2023-05-17T01:14:09.196Z,2.29
2023-05-17T01:16:50.360Z,2.40
2023-05-17T01:19:41.686Z,2.33
2023-05-17T01:22:36.418Z,2.29
2023-05-17T01:25:28.125Z,2.32
2023-05-17T01:27:56.614Z,2.00
2023-05-17T01:30:23.279Z,2.39
2023-05-17T01:32:50.010Z,2.19
2023-05-17T01:35:16.677Z,2.22
2023-05-17T01:37:43.333Z,2.17
2023-05-17T01:40:10.064Z,2.35
2023-05-17T01:42:38.677Z,2.18
2023-05-17T01:45:24.359Z,2.35
2023-05-17T01:48:09.780Z,2.10
2023-05-17T01:50:36.666Z,2.22
2023-05-17T01:53:07.775Z,2.24
2023-05-17T01:55:54.448Z,2.42
2023-05-17T01:58:21.752Z,2.17
2023-05-17T02:00:49.205Z,2.13
2023-05-17T02:03:19.119Z,2.07
2023-05-17T02:05:45.935Z,2.39
2023-05-17T02:08:12.788Z,2.08
2023-05-17T02:10:39.519Z,2.17
2023-05-17T02:13:06.167Z,2.28
2023-05-17T02:15:32.818Z,2.14
2023-05-17T02:17:59.596Z,2.17
2023-05-17T02:20:26.310Z,1.87
2023-05-17T02:22:53.010Z,2.00
2023-05-17T02:25:19.682Z,2.08
2023-05-17T02:27:46.403Z,2.12
2023-05-17T02:30:14.074Z,2.11
2023-05-17T02:32:41.766Z,2.16
2023-05-17T02:35:08.919Z,1.89
2023-05-17T02:37:35.601Z,2.06
2023-05-17T02:40:02.253Z,2.29
2023-05-17T02:42:28.949Z,2.38
2023-05-17T02:44:55.618Z,2.06
2023-05-17T02:47:22.279Z,2.08
2023-05-17T02:49:48.967Z,2.10
2023-05-17T02:52:15.890Z,2.10
2023-05-17T02:54:42.531Z,1.93
2023-05-17T02:57:09.732Z,2.15
2023-05-17T02:59:36.474Z,2.15
2023-05-17T03:02:03.170Z,2.13
2023-05-17T03:04:29.894Z,2.13
2023-05-17T03:06:56.619Z,2.27
2023-05-17T03:09:23.333Z,2.28
2023-05-17T03:11:49.985Z,2.32
2023-05-17T03:14:16.628Z,2.29
2023-05-17T03:16:43.562Z,2.23
2023-05-17T03:19:10.331Z,2.19
2023-05-17T03:21:37.102Z,1.97
2023-05-17T03:24:03.856Z,1.95
2023-05-17T03:26:30.577Z,1.98
2023-05-17T03:28:57.283Z,2.22
2023-05-17T03:31:23.918Z,2.21
2023-05-17T03:33:50.770Z,2.16
2023-05-17T03:36:17.586Z,2.19
2023-05-17T03:38:44.276Z,2.38
2023-05-17T03:41:11.498Z,2.07
2023-05-17T03:43:38.157Z,2.04
2023-05-17T03:46:04.839Z,2.24
2023-05-17T03:48:33.153Z,2.11
2023-05-17T03:51:01.871Z,2.40
2023-05-17T03:53:30.260Z,2.32
2023-05-17T03:55:56.970Z,2.06
2023-05-17T03:58:23.622Z,2.19
2023-05-17T04:00:50.333Z,2.21
2023-05-17T04:03:19.277Z,2.49
2023-05-17T04:05:46.709Z,2.31
2023-05-17T04:08:13.353Z,2.26
2023-05-17T04:10:40.666Z,2.06
2023-05-17T04:13:07.608Z,2.11
2023-05-17T04:15:34.248Z,1.95
2023-05-17T04:18:01.038Z,2.40
2023-05-17T04:20:27.759Z,2.25
2023-05-17T04:22:54.440Z,2.69
2023-05-17T04:25:21.058Z,2.21
2023-05-17T04:27:47.698Z,1.95
2023-05-17T04:30:14.640Z,2.12
2023-05-17T04:32:41.437Z,2.10
2023-05-17T04:35:08.103Z,2.23
2023-05-17T04:37:34.743Z,2.05
2023-05-17T04:40:01.422Z,2.00
2023-05-17T04:42:28.075Z,2.31
2023-05-17T04:44:54.706Z,2.19
2023-05-17T04:47:21.352Z,2.05
2023-05-17T04:49:48.024Z,1.95
2023-05-17T04:52:14.700Z,2.07
2023-05-17T04:54:41.445Z,1.96
2023-05-17T04:57:08.148Z,1.90
2023-05-17T04:59:34.825Z,1.99
2023-05-17T05:02:01.514Z,2.14
2023-05-17T05:04:28.218Z,2.36
2023-05-17T05:06:54.910Z,2.28
2023-05-17T05:09:21.593Z,2.10
2023-05-17T05:11:48.387Z,2.22
2023-05-17T05:14:15.073Z,2.06
2023-05-17T05:16:41.814Z,1.92
2023-05-17T05:19:08.804Z,1.84
2023-05-17T05:21:35.760Z,1.96
2023-05-17T05:24:02.523Z,1.85
2023-05-17T05:26:29.178Z,2.22
2023-05-17T05:28:55.980Z,1.71
2023-05-17T05:31:22.661Z,2.00
2023-05-17T05:33:49.380Z,2.03
2023-05-17T05:36:16.144Z,2.06
2023-05-17T05:38:42.858Z,1.88
2023-05-17T05:41:09.567Z,1.86
2023-05-17T05:43:36.261Z,1.97
2023-05-17T05:46:03.295Z,1.80
2023-05-17T05:48:30.023Z,1.89
2023-05-17T05:50:56.760Z,1.97
2023-05-17T05:53:23.453Z,2.22
2023-05-17T05:55:50.155Z,2.31
2023-05-17T05:58:16.907Z,2.11
2023-05-17T06:00:43.682Z,2.08
2023-05-17T06:03:10.389Z,1.95
2023-05-17T06:05:37.118Z,2.20
2023-05-17T06:08:04.046Z,1.70
2023-05-17T06:10:30.897Z,2.04
2023-05-17T06:12:57.826Z,1.89
2023-05-17T06:15:24.512Z,1.97
2023-05-17T06:17:51.300Z,1.81
2023-05-17T06:20:18.036Z,1.80
2023-05-17T06:22:44.711Z,2.04
2023-05-17T06:25:11.360Z,2.15
2023-05-17T06:27:37.985Z,2.04
2023-05-17T06:30:07.307Z,1.76
2023-05-17T06:32:34.561Z,1.82
2023-05-17T06:35:01.237Z,1.95
2023-05-17T06:37:27.908Z,1.68
2023-05-17T06:40:00.146Z,2.13
2023-05-17T06:42:36.507Z,3.85
2023-05-17T06:45:03.287Z,2.41
2023-05-17T06:47:30.062Z,4.46
2023-05-17T06:49:56.873Z,2.09
2023-05-17T06:52:23.507Z,3.05
2023-05-17T06:54:50.140Z,2.30
2023-05-17T06:57:16.974Z,2.12
2023-05-17T06:59:43.675Z,2.44
2023-05-17T07:02:10.358Z,2.38
2023-05-17T07:04:37.037Z,2.17
2023-05-17T07:07:03.728Z,2.16
2023-05-17T07:09:30.410Z,2.04
2023-05-17T07:11:57.053Z,1.98
2023-05-17T07:14:23.709Z,2.18
2023-05-17T07:16:50.362Z,2.14
2023-05-17T07:19:17.057Z,1.98
2023-05-17T07:21:43.816Z,1.90
2023-05-17T07:24:10.505Z,2.01
2023-05-17T07:26:37.235Z,2.24
2023-05-17T07:29:04.012Z,2.23
2023-05-17T07:31:30.791Z,2.24
2023-05-17T07:33:57.510Z,2.11
2023-05-17T07:36:24.260Z,2.27
2023-05-17T07:38:50.970Z,2.06
2023-05-17T07:41:19.397Z,2.56
2023-05-17T07:43:46.203Z,2.25
2023-05-17T07:46:12.833Z,2.00
2023-05-17T07:48:39.648Z,2.15
2023-05-17T07:51:06.474Z,2.00
2023-05-17T07:53:33.160Z,1.85
2023-05-17T07:55:59.861Z,1.99
2023-05-17T07:58:26.537Z,1.94
2023-05-17T08:00:53.168Z,1.78
2023-05-17T08:03:19.916Z,2.12
2023-05-17T08:05:46.628Z,1.83
2023-05-17T08:08:13.518Z,2.14
2023-05-17T08:10:40.231Z,2.14
2023-05-17T08:13:06.882Z,1.77
2023-05-17T08:15:33.689Z,1.89
2023-05-17T08:18:02.951Z,2.02
2023-05-17T08:20:31.250Z,1.92
2023-05-17T08:22:57.907Z,2.09
2023-05-17T08:25:24.560Z,2.13
2023-05-17T08:27:51.303Z,2.15
2023-05-17T08:30:28.081Z,2.10
2023-05-17T08:32:55.850Z,2.04
2023-05-17T08:35:22.585Z,1.75
2023-05-17T08:37:49.276Z,1.85
2023-05-17T08:40:16.083Z,2.15
2023-05-17T08:42:42.785Z,2.17
2023-05-17T08:45:09.509Z,1.91
2023-05-17T08:47:36.213Z,2.15
2023-05-17T08:50:02.924Z,1.89
2023-05-17T08:52:32.777Z,1.88
2023-05-17T08:54:59.437Z,2.19
2023-05-17T08:57:26.117Z,2.14
2023-05-17T08:59:52.775Z,2.05
2023-05-17T09:02:19.478Z,1.94
2023-05-17T09:04:46.238Z,1.79
2023-05-17T09:07:14.214Z,2.18
2023-05-17T09:09:41.886Z,2.13
2023-05-17T09:12:08.763Z,1.89
2023-05-17T09:14:35.413Z,2.06
2023-05-17T09:17:02.139Z,2.00
2023-05-17T09:19:28.871Z,1.93
2023-05-17T09:21:55.730Z,1.96
2023-05-17T09:24:29.211Z,2.41
2023-05-17T09:27:01.462Z,1.95
2023-05-17T09:29:29.601Z,1.88
2023-05-17T09:31:56.286Z,1.77
2023-05-17T09:34:24.681Z,1.85
2023-05-17T09:36:51.292Z,2.00
2023-05-17T09:39:17.983Z,1.88
2023-05-17T09:41:45.882Z,1.97
2023-05-17T09:44:13.095Z,1.72
2023-05-17T09:46:44.891Z,1.96
2023-05-17T09:49:11.540Z,2.04
2023-05-17T09:51:56.401Z,1.88
2023-05-17T09:54:23.090Z,2.11
2023-05-17T09:56:55.885Z,1.84
2023-05-17T09:59:22.572Z,1.98
2023-05-17T10:01:49.255Z,2.37
2023-05-17T10:04:16.051Z,2.22
2023-05-17T10:06:48.548Z,2.37
2023-05-17T10:09:18.266Z,2.24
2023-05-17T10:11:46.575Z,2.34
2023-05-17T10:14:27.204Z,2.18
2023-05-17T10:16:54.019Z,2.34
2023-05-17T10:19:21.090Z,2.53
2023-05-17T10:21:48.300Z,2.06
2023-05-17T10:24:14.923Z,2.43
2023-05-17T10:26:41.551Z,2.35
2023-05-17T10:29:08.274Z,2.16
2023-05-17T10:31:34.957Z,2.46
2023-05-17T10:34:01.872Z,2.40
2023-05-17T10:36:29.822Z,2.44
2023-05-17T10:38:57.170Z,2.10
2023-05-17T10:41:26.600Z,2.07
2023-05-17T10:43:53.708Z,2.47
2023-05-17T10:46:20.480Z,2.35
2023-05-17T10:48:54.002Z,2.31
2023-05-17T10:51:25.527Z,2.40
2023-05-17T10:54:11.463Z,2.56
2023-05-17T10:56:42.195Z,2.98
2023-05-17T10:59:24.943Z,2.64
2023-05-17T11:02:00.825Z,2.48
2023-05-17T11:04:37.938Z,2.04
2023-05-17T11:07:16.873Z,2.60
2023-05-17T11:09:44.203Z,2.05
2023-05-17T11:12:11.877Z,2.43
2023-05-17T11:14:44.613Z,2.38
2023-05-17T11:17:18.644Z,2.42
2023-05-17T11:19:54.353Z,2.29
2023-05-17T11:22:24.728Z,2.38
2023-05-17T11:24:56.568Z,2.33
2023-05-17T11:27:23.416Z,2.29
2023-05-17T11:29:50.164Z,2.42
2023-05-17T11:32:16.850Z,2.41
2023-05-17T11:34:43.549Z,2.32
2023-05-17T11:37:10.776Z,2.26
2023-05-17T11:39:37.406Z,2.21
2023-05-17T11:42:04.249Z,2.12
2023-05-17T11:44:33.794Z,2.17
2023-05-17T11:47:07.537Z,2.15
2023-05-17T11:49:37.162Z,2.31
2023-05-17T11:52:07.019Z,1.99
2023-05-17T11:54:33.851Z,2.01
2023-05-17T11:57:00.559Z,2.12
2023-05-17T11:59:27.253Z,1.80
2023-05-17T12:01:53.943Z,2.11
2023-05-17T12:04:27.057Z,2.06
2023-05-17T12:06:54.488Z,2.34
2023-05-17T12:09:22.128Z,2.17
2023-05-17T12:11:48.884Z,2.00
2023-05-17T12:14:16.563Z,2.07
2023-05-17T12:16:43.958Z,2.25
2023-05-17T12:19:20.525Z,2.37
2023-05-17T12:21:47.260Z,2.16
2023-05-17T12:24:13.953Z,2.34
2023-05-17T12:26:43.946Z,2.14
2023-05-17T12:29:11.932Z,2.17
2023-05-17T12:31:40.887Z,2.27
2023-05-17T12:34:07.790Z,2.24
2023-05-17T12:36:34.626Z,2.13
2023-05-17T12:39:01.619Z,2.19
2023-05-17T12:41:28.335Z,2.19
2023-05-17T12:44:06.342Z,2.09
2023-05-17T12:46:40.999Z,2.11
2023-05-17T12:49:08.409Z,2.07
2023-05-17T12:51:42.114Z,2.10
2023-05-17T12:54:08.749Z,2.22
2023-05-17T12:56:35.375Z,2.30
2023-05-17T12:59:11.086Z,2.28
2023-05-17T13:01:58.859Z,2.64
2023-05-17T13:04:32.641Z,1.97
2023-05-17T13:07:01.033Z,2.10
2023-05-17T13:09:28.940Z,2.41
2023-05-17T13:12:00.748Z,2.18
2023-05-17T13:14:36.772Z,2.39
2023-05-17T13:17:16.873Z,2.33
2023-05-17T13:19:43.657Z,2.17
2023-05-17T13:22:10.909Z,2.25
2023-05-17T13:24:38.269Z,2.66
2023-05-17T13:27:05.236Z,2.33
2023-05-17T13:29:39.469Z,3.44
2023-05-17T13:32:07.868Z,2.64
2023-05-17T13:34:34.811Z,2.44
2023-05-17T13:37:01.472Z,2.63
2023-05-17T13:39:28.153Z,2.36
2023-05-17T13:41:54.834Z,2.55
2023-05-17T13:44:21.481Z,2.21
2023-05-17T13:46:48.167Z,2.31
2023-05-17T13:49:14.968Z,2.19
2023-05-17T13:51:41.718Z,2.19
2023-05-17T13:54:08.512Z,2.19
2023-05-17T13:56:35.348Z,2.09
2023-05-17T13:59:02.051Z,1.89
2023-05-17T14:01:28.738Z,2.22
2023-05-17T14:03:55.503Z,2.60
2023-05-17T14:06:22.286Z,2.14
2023-05-17T14:08:49.024Z,2.09
2023-05-17T14:11:15.705Z,2.30
2023-05-17T14:13:42.451Z,2.30
2023-05-17T14:16:09.086Z,1.93
2023-05-17T14:18:36.032Z,2.19
2023-05-17T14:21:02.997Z,2.20
2023-05-17T14:23:29.678Z,2.25
2023-05-17T14:25:56.376Z,2.19
2023-05-17T14:28:23.068Z,2.05
2023-05-17T14:30:49.700Z,2.20
2023-05-17T14:33:16.395Z,2.15
2023-05-17T14:35:43.101Z,1.94
2023-05-17T14:38:09.802Z,2.23
2023-05-17T14:40:36.510Z,2.00
2023-05-17T14:43:03.204Z,2.28
2023-05-17T14:45:29.908Z,2.53
2023-05-17T14:47:56.562Z,2.07
2023-05-17T14:50:23.222Z,2.34
2023-05-17T14:52:49.856Z,2.18
2023-05-17T14:55:16.591Z,2.17
2023-05-17T14:57:43.722Z,2.14
2023-05-17T15:00:10.847Z,2.11
2023-05-17T15:02:38.273Z,2.09
2023-05-17T15:05:05.249Z,2.16
2023-05-17T15:07:31.939Z,2.47
2023-05-17T15:09:58.591Z,2.20
2023-05-17T15:12:25.248Z,2.33
2023-05-17T15:14:51.899Z,2.22
2023-05-17T15:17:18.588Z,2.19
2023-05-17T15:19:45.365Z,2.04
2023-05-17T15:22:12.181Z,2.05
2023-05-17T15:24:38.882Z,2.14
2023-05-17T15:27:05.924Z,2.00
2023-05-17T15:29:32.957Z,2.01
2023-05-17T15:31:59.631Z,2.04
2023-05-17T15:34:26.278Z,2.17
2023-05-17T15:36:57.497Z,2.36
2023-05-17T15:39:24.310Z,2.24
2023-05-17T15:41:51.023Z,2.71
2023-05-17T15:44:17.694Z,2.75
2023-05-17T15:46:44.364Z,2.27
2023-05-17T15:49:11.096Z,2.55
2023-05-17T15:51:37.818Z,2.51
2023-05-17T15:54:04.477Z,2.25
2023-05-17T15:56:31.193Z,2.94
2023-05-17T15:58:58.307Z,2.24
2023-05-17T16:01:25.704Z,2.20
2023-05-17T16:03:52.396Z,2.34
2023-05-17T16:06:19.136Z,2.26
2023-05-17T16:08:45.801Z,2.37
2023-05-17T16:11:12.481Z,2.50
2023-05-17T16:13:39.248Z,2.11
2023-05-17T16:16:06.109Z,2.21
2023-05-17T16:18:32.928Z,2.08
2023-05-17T16:21:03.209Z,1.94
2023-05-17T16:23:29.935Z,1.93
2023-05-17T16:25:56.574Z,2.02
2023-05-17T16:28:23.263Z,2.08
2023-05-17T16:30:50.607Z,2.21
2023-05-17T16:33:17.510Z,2.18
2023-05-17T16:35:44.173Z,2.21
2023-05-17T16:38:10.800Z,2.27
2023-05-17T16:40:38.465Z,2.42
2023-05-17T16:43:05.158Z,1.96
2023-05-17T16:45:31.818Z,2.37
2023-05-17T16:47:58.528Z,2.47
2023-05-17T16:50:25.269Z,2.32
2023-05-17T16:52:51.971Z,2.00
2023-05-17T16:55:18.660Z,2.33
2023-05-17T16:57:45.340Z,2.48
2023-05-17T17:00:12.525Z,3.97
2023-05-17T17:02:39.237Z,4.07
2023-05-17T17:05:06.220Z,4.07
2023-05-17T17:07:32.891Z,2.38
2023-05-17T17:09:59.759Z,2.24
2023-05-17T17:12:26.439Z,2.38
2023-05-17T17:14:53.640Z,2.17
2023-05-17T17:17:20.352Z,2.50
2023-05-17T17:19:47.030Z,2.43
2023-05-17T17:22:13.677Z,2.41
2023-05-17T17:24:40.365Z,2.13
2023-05-17T17:27:07.051Z,2.41
2023-05-17T17:29:33.745Z,2.47
2023-05-17T17:32:00.454Z,2.37
2023-05-17T17:34:27.120Z,2.28
2023-05-17T17:36:53.874Z,2.43
2023-05-17T17:39:20.558Z,2.66
2023-05-17T17:41:47.228Z,2.66
2023-05-17T17:44:13.914Z,3.11
2023-05-17T17:46:40.639Z,2.07
2023-05-17T17:49:07.428Z,2.25
2023-05-17T17:51:34.183Z,2.84
2023-05-17T17:54:00.976Z,3.02
2023-05-17T17:56:27.630Z,6.19
2023-05-17T17:58:54.307Z,3.75
2023-05-17T18:01:21.226Z,2.33
2023-05-17T18:03:48.072Z,2.37
2023-05-17T18:06:14.756Z,2.16
2023-05-17T18:08:41.430Z,2.39
2023-05-17T18:11:08.111Z,2.04
2023-05-17T18:13:35.386Z,2.12
2023-05-17T18:16:02.173Z,2.49
2023-05-17T18:18:28.931Z,2.27
2023-05-17T18:20:55.658Z,2.61
2023-05-17T18:23:22.329Z,2.24
2023-05-17T18:25:49.001Z,2.26
2023-05-17T18:28:16.139Z,2.15
2023-05-17T18:30:43.719Z,2.35
2023-05-17T18:33:10.502Z,2.01
2023-05-17T18:35:37.237Z,2.16
2023-05-17T18:38:03.906Z,2.35
2023-05-17T18:40:30.724Z,2.34
2023-05-17T18:42:57.476Z,2.08
2023-05-17T18:45:24.123Z,2.38
2023-05-17T18:47:50.897Z,2.32
2023-05-17T18:50:17.712Z,2.41
2023-05-17T18:52:44.442Z,2.53
2023-05-17T18:55:11.122Z,2.67
2023-05-17T18:57:37.805Z,2.35
2023-05-17T19:00:04.838Z,2.24
2023-05-17T19:02:31.579Z,2.49
2023-05-17T19:04:58.271Z,2.91
2023-05-17T19:07:24.941Z,2.55
2023-05-17T19:09:51.645Z,3.15
2023-05-17T19:12:18.349Z,2.88
2023-05-17T19:14:45.036Z,2.46
2023-05-17T19:17:11.781Z,2.63
2023-05-17T19:19:38.542Z,3.22
2023-05-17T19:22:05.279Z,2.59
2023-05-17T19:24:32.008Z,2.24
2023-05-17T19:26:58.719Z,2.17
2023-05-17T19:29:25.373Z,2.53
2023-05-17T19:31:52.102Z,2.38
2023-05-17T19:34:18.865Z,2.63
2023-05-17T19:36:45.581Z,2.24
2023-05-17T19:39:12.270Z,2.11
2023-05-17T19:41:38.971Z,2.31
2023-05-17T19:44:05.694Z,2.19
2023-05-17T19:46:32.374Z,2.31
2023-05-17T19:48:59.027Z,2.30
2023-05-17T19:51:25.764Z,2.33
2023-05-17T19:53:53.919Z,2.54
2023-05-17T19:56:22.986Z,2.21
2023-05-17T19:58:49.749Z,2.14
2023-05-17T20:01:16.470Z,3.05
2023-05-17T20:03:43.322Z,2.86
2023-05-17T20:06:10.082Z,2.30
2023-05-17T20:08:36.768Z,4.04
2023-05-17T20:11:03.474Z,2.20
2023-05-17T20:13:30.132Z,2.35
2023-05-17T20:15:56.954Z,2.31
2023-05-17T20:18:23.880Z,2.18
2023-05-17T20:20:50.571Z,2.34
2023-05-17T20:23:17.285Z,2.66
2023-05-17T20:25:43.938Z,2.24
2023-05-17T20:28:10.602Z,2.32
2023-05-17T20:30:37.328Z,2.25
2023-05-17T20:33:04.107Z,2.33
2023-05-17T20:35:30.956Z,2.29
2023-05-17T20:37:57.640Z,2.17
2023-05-17T20:40:24.389Z,2.00
2023-05-17T20:42:51.096Z,2.04
2023-05-17T20:45:17.771Z,2.24
2023-05-17T20:47:44.536Z,2.44
2023-05-17T20:50:11.257Z,2.13
2023-05-17T20:52:39.794Z,2.25
2023-05-17T20:55:08.613Z,2.26
2023-05-17T20:57:35.454Z,2.46
2023-05-17T21:00:02.515Z,2.34
2023-05-17T21:02:29.394Z,2.16
2023-05-17T21:04:56.118Z,2.19
2023-05-17T21:07:22.854Z,2.28
2023-05-17T21:09:49.511Z,2.45
2023-05-17T21:12:16.223Z,2.35
2023-05-17T21:14:43.268Z,2.36
2023-05-17T21:17:09.919Z,2.28
2023-05-17T21:19:36.612Z,2.55
2023-05-17T21:22:03.487Z,2.35
2023-05-17T21:24:30.352Z,2.51
2023-05-17T21:26:57.068Z,2.90
2023-05-17T21:29:23.792Z,3.48
2023-05-17T21:31:50.564Z,2.81
2023-05-17T21:34:17.326Z,2.30
2023-05-17T21:36:44.078Z,2.23
2023-05-17T21:39:10.826Z,2.40
2023-05-17T21:41:37.545Z,2.52
2023-05-17T21:44:04.266Z,2.22
2023-05-17T21:46:31.029Z,2.11
2023-05-17T21:48:57.752Z,2.30
2023-05-17T21:51:24.402Z,2.42
2023-05-17T21:53:51.093Z,2.25
2023-05-17T21:56:17.905Z,2.35
2023-05-17T21:58:44.543Z,2.15
2023-05-17T22:01:11.191Z,2.27
2023-05-17T22:03:37.993Z,2.31
2023-05-17T22:06:05.020Z,2.45
2023-05-17T22:08:31.745Z,2.46
2023-05-17T22:10:58.387Z,2.45
2023-05-17T22:13:25.113Z,2.49
2023-05-17T22:15:54.912Z,2.77
2023-05-17T22:18:21.713Z,2.85
2023-05-17T22:20:48.837Z,3.05
2023-05-17T22:23:15.539Z,3.37
2023-05-17T22:25:42.224Z,3.35
2023-05-17T22:28:08.909Z,3.75
2023-05-17T22:30:35.623Z,3.58
2023-05-17T22:33:02.331Z,3.38
2023-05-17T22:35:29.032Z,3.80
2023-05-17T22:37:55.677Z,3.81
2023-05-17T22:40:22.365Z,4.02
2023-05-17T22:42:49.071Z,4.12
2023-05-17T22:45:15.816Z,4.33
2023-05-17T22:47:42.620Z,4.16
2023-05-17T22:50:09.889Z,4.22
2023-05-17T22:52:36.649Z,4.45
2023-05-17T22:55:03.401Z,4.28
2023-05-17T22:57:30.090Z,4.49
2023-05-17T22:59:56.783Z,4.17
2023-05-17T23:02:23.533Z,4.41
2023-05-17T23:04:50.209Z,4.54
2023-05-17T23:07:16.913Z,4.51
2023-05-17T23:09:43.559Z,4.60
2023-05-17T23:12:10.281Z,4.60
2023-05-17T23:14:37.053Z,4.72
2023-05-17T23:17:04.300Z,4.92
2023-05-17T23:19:31.622Z,4.86
2023-05-17T23:21:58.361Z,4.97
2023-05-17T23:24:25.045Z,4.82
2023-05-17T23:26:52.353Z,4.82
2023-05-17T23:29:19.116Z,5.22
2023-05-17T23:31:45.854Z,4.82
2023-05-17T23:34:12.622Z,4.87
2023-05-17T23:36:39.307Z,5.00
2023-05-17T23:39:06.190Z,4.90
2023-05-17T23:41:32.843Z,5.40
2023-05-17T23:43:59.500Z,5.51
2023-05-17T23:46:26.255Z,5.31
2023-05-17T23:48:52.968Z,5.21
2023-05-17T23:51:19.781Z,5.46
2023-05-17T23:53:46.496Z,5.44
2023-05-17T23:56:13.204Z,5.27
2023-05-17T23:58:39.905Z,5.38
